createdAt,value
2023-09-25T00:01:23.195Z,8.35
2023-09-25T00:03:50.403Z,8.32
2023-09-25T00:06:17.575Z,8.18
2023-09-25T00:08:44.530Z,8.12
2023-09-25T00:11:11.201Z,8.19
2023-09-25T00:13:37.991Z,8.23
2023-09-25T00:16:05.382Z,8.25
2023-09-25T00:18:32.300Z,8.27
2023-09-25T00:20:59.421Z,8.20
2023-09-25T00:23:26.220Z,8.24
2023-09-25T00:26:01.324Z,8.31
2023-09-25T00:28:28.361Z,8.34
2023-09-25T00:30:55.228Z,8.32
2023-09-25T00:33:22.222Z,8.35
2023-09-25T00:35:49.607Z,8.38
2023-09-25T00:38:16.522Z,8.34
2023-09-25T00:40:44.035Z,8.29
2023-09-25T00:43:14.245Z,8.28
2023-09-25T00:45:43.206Z,8.30
2023-09-25T00:48:27.734Z,8.23
2023-09-25T00:50:59.986Z,8.23
2023-09-25T00:53:28.576Z,8.24
2023-09-25T00:55:56.470Z,8.21
2023-09-25T00:58:24.953Z,8.24
2023-09-25T01:00:51.980Z,8.18
2023-09-25T01:03:19.907Z,8.13
2023-09-25T01:05:47.115Z,8.04
2023-09-25T01:08:13.979Z,8.00
2023-09-25T01:10:43.906Z,7.91
2023-09-25T01:13:11.573Z,7.87
2023-09-25T01:15:40.390Z,7.89
2023-09-25T01:18:09.482Z,7.90
2023-09-25T01:20:37.504Z,7.87
2023-09-25T01:23:04.772Z,7.80
2023-09-25T01:25:31.565Z,7.76
2023-09-25T01:27:58.317Z,7.79
2023-09-25T01:30:25.231Z,7.73
2023-09-25T01:32:53.572Z,7.72
2023-09-25T01:35:24.257Z,7.73
2023-09-25T01:37:55.636Z,7.71
2023-09-25T01:40:22.422Z,7.71
2023-09-25T01:42:49.318Z,7.69
2023-09-25T01:45:19.513Z,7.66
2023-09-25T01:47:52.524Z,7.65
2023-09-25T01:50:21.967Z,7.65
2023-09-25T01:52:53.146Z,7.63
2023-09-25T01:55:20.651Z,7.63
2023-09-25T01:57:47.703Z,7.64
2023-09-25T02:00:15.042Z,7.68
2023-09-25T02:02:44.840Z,7.64
2023-09-25T02:05:12.099Z,7.61
2023-09-25T02:07:39.087Z,7.58
2023-09-25T02:10:07.939Z,7.55
2023-09-25T02:12:35.406Z,7.47
2023-09-25T02:15:05.798Z,7.44
2023-09-25T02:17:33.607Z,7.39
2023-09-25T02:20:20.844Z,7.38
2023-09-25T02:22:48.795Z,7.31
2023-09-25T02:25:16.296Z,7.29
2023-09-25T02:27:43.171Z,7.28
2023-09-25T02:30:11.631Z,7.26
2023-09-25T02:32:38.756Z,7.24
2023-09-25T02:35:06.500Z,7.23
2023-09-25T02:37:33.690Z,7.16
2023-09-25T02:40:00.446Z,7.17
2023-09-25T02:42:27.738Z,7.18
2023-09-25T02:44:54.398Z,7.09
2023-09-25T02:47:21.116Z,7.10
2023-09-25T02:49:47.726Z,7.14
2023-09-25T02:52:14.610Z,7.17
2023-09-25T02:54:41.253Z,7.14
2023-09-25T02:57:08.046Z,7.13
2023-09-25T02:59:34.776Z,7.15
2023-09-25T03:02:03.495Z,7.14
2023-09-25T03:04:30.269Z,7.14
2023-09-25T03:06:57.952Z,7.10
2023-09-25T03:09:24.739Z,7.06
2023-09-25T03:11:51.484Z,7.05
2023-09-25T03:14:18.136Z,7.10
2023-09-25T03:16:46.898Z,7.08
2023-09-25T03:19:14.061Z,7.05
2023-09-25T03:21:42.812Z,7.12
2023-09-25T03:24:10.064Z,7.12
2023-09-25T03:26:38.146Z,7.05
2023-09-25T03:29:08.306Z,7.04
2023-09-25T03:31:35.151Z,7.02
2023-09-25T03:34:02.231Z,7.02
2023-09-25T03:36:29.231Z,6.98
2023-09-25T03:38:57.106Z,6.94
2023-09-25T03:41:23.948Z,6.83
2023-09-25T03:43:51.356Z,6.81
2023-09-25T03:46:18.172Z,6.81
2023-09-25T03:48:48.333Z,6.80
2023-09-25T03:51:15.927Z,6.84
2023-09-25T03:53:42.636Z,6.76
2023-09-25T03:56:09.374Z,6.71
2023-09-25T03:58:36.063Z,6.68
2023-09-25T04:01:03.048Z,6.75
2023-09-25T04:03:32.174Z,6.81
2023-09-25T04:05:59.526Z,6.78
2023-09-25T04:08:26.228Z,6.80
2023-09-25T04:10:53.334Z,6.79
2023-09-25T04:13:23.631Z,6.83
2023-09-25T04:15:52.471Z,6.86
2023-09-25T04:18:20.451Z,6.89
2023-09-25T04:20:47.722Z,6.89
2023-09-25T04:23:15.100Z,6.85
2023-09-25T04:25:42.592Z,6.86
2023-09-25T04:28:09.647Z,6.87
2023-09-25T04:30:44.523Z,6.85
2023-09-25T04:33:11.791Z,6.88
2023-09-25T04:35:38.744Z,6.85
2023-09-25T04:38:05.505Z,6.84
2023-09-25T04:40:32.524Z,6.81
2023-09-25T04:43:01.414Z,6.80
2023-09-25T04:45:30.719Z,6.79
2023-09-25T04:47:58.648Z,6.81
2023-09-25T04:50:25.745Z,6.78
2023-09-25T04:52:53.226Z,6.72
2023-09-25T04:55:19.959Z,6.71
2023-09-25T04:57:48.058Z,6.76
2023-09-25T05:00:26.684Z,6.71
2023-09-25T05:02:58.323Z,6.73
2023-09-25T05:05:26.216Z,6.76
2023-09-25T05:07:57.047Z,6.74
2023-09-25T05:10:29.099Z,6.77
2023-09-25T05:12:57.110Z,6.78
2023-09-25T05:15:25.399Z,6.81
2023-09-25T05:17:52.812Z,6.81
2023-09-25T05:20:23.937Z,6.92
2023-09-25T05:22:56.365Z,6.92
2023-09-25T05:25:24.071Z,6.86
2023-09-25T05:27:53.659Z,6.86
2023-09-25T05:30:20.791Z,6.89
2023-09-25T05:32:52.760Z,6.91
2023-09-25T05:35:20.464Z,6.98
2023-09-25T05:37:49.212Z,7.05
2023-09-25T05:40:16.996Z,7.10
2023-09-25T05:42:48.628Z,7.16
2023-09-25T05:45:17.757Z,7.22
2023-09-25T05:47:46.022Z,7.27
2023-09-25T05:50:13.404Z,7.34
2023-09-25T05:52:40.966Z,7.44
2023-09-25T05:55:08.957Z,7.51
2023-09-25T05:57:36.106Z,7.59
2023-09-25T06:00:11.057Z,7.71
2023-09-25T06:02:39.479Z,7.78
2023-09-25T06:05:07.464Z,7.86
2023-09-25T06:07:36.321Z,7.91
2023-09-25T06:10:05.347Z,7.94
2023-09-25T06:12:32.850Z,8.00
2023-09-25T06:14:59.582Z,8.10
2023-09-25T06:17:28.979Z,8.22
2023-09-25T06:19:55.820Z,8.31
2023-09-25T06:22:22.838Z,8.40
2023-09-25T06:24:52.497Z,8.46
2023-09-25T06:27:19.201Z,8.48
2023-09-25T06:29:46.594Z,8.55
2023-09-25T06:32:13.230Z,8.62
2023-09-25T06:34:43.080Z,8.69
2023-09-25T06:37:10.040Z,8.75
2023-09-25T06:39:36.768Z,8.87
2023-09-25T06:42:04.661Z,8.96
2023-09-25T06:44:31.680Z,9.06
2023-09-25T06:46:58.500Z,9.17
2023-09-25T06:49:25.465Z,9.28
2023-09-25T06:51:52.176Z,9.37
2023-09-25T06:54:19.087Z,9.45
2023-09-25T06:56:45.823Z,9.55
2023-09-25T06:59:12.874Z,9.74
2023-09-25T07:01:39.800Z,9.89
2023-09-25T07:04:07.731Z,9.98
2023-09-25T07:06:34.825Z,10.07
2023-09-25T07:09:01.675Z,10.17
2023-09-25T07:11:28.516Z,10.26
2023-09-25T07:13:55.215Z,10.38
2023-09-25T07:16:22.026Z,10.41
2023-09-25T07:18:49.422Z,10.45
2023-09-25T07:21:16.885Z,10.51
2023-09-25T07:23:44.093Z,10.59
2023-09-25T07:26:10.833Z,10.72
2023-09-25T07:28:38.244Z,10.96
2023-09-25T07:31:07.380Z,11.24
2023-09-25T07:33:35.736Z,11.56
2023-09-25T07:36:06.795Z,11.86
2023-09-25T07:38:33.598Z,11.98
2023-09-25T07:41:02.679Z,12.11
2023-09-25T07:46:02.139Z,12.36
2023-09-25T07:48:31.477Z,12.53
2023-09-25T07:50:59.628Z,12.65
2023-09-25T07:53:27.667Z,12.85
2023-09-25T07:55:54.394Z,12.96
2023-09-25T07:58:21.173Z,13.10
2023-09-25T08:00:52.077Z,13.31
2023-09-25T08:03:23.626Z,13.47
2023-09-25T08:05:50.697Z,13.60
2023-09-25T08:08:17.545Z,13.69
2023-09-25T08:10:48.173Z,13.84
2023-09-25T08:13:16.598Z,14.00
2023-09-25T08:15:43.731Z,14.17
2023-09-25T08:18:10.578Z,14.28
2023-09-25T08:20:37.401Z,14.48
2023-09-25T08:23:04.503Z,14.75
2023-09-25T08:25:31.804Z,14.91
2023-09-25T08:27:58.959Z,15.06
2023-09-25T08:30:25.981Z,15.10
2023-09-25T08:32:54.968Z,15.19
2023-09-25T08:35:21.904Z,15.25
2023-09-25T08:37:48.960Z,15.33
2023-09-25T08:40:16.055Z,15.45
2023-09-25T08:42:44.136Z,15.54
2023-09-25T08:45:10.915Z,15.59
2023-09-25T08:47:40.025Z,15.70
2023-09-25T08:50:09.787Z,15.82
2023-09-25T08:52:37.005Z,16.04
2023-09-25T08:55:05.435Z,16.29
2023-09-25T08:57:32.344Z,16.50
2023-09-25T09:00:16.124Z,16.70
2023-09-25T09:02:45.098Z,16.92
2023-09-25T09:05:12.881Z,17.09
2023-09-25T09:07:55.478Z,17.21
2023-09-25T09:10:22.502Z,17.38
2023-09-25T09:13:02.677Z,17.53
2023-09-25T09:15:31.448Z,17.58
2023-09-25T09:17:59.043Z,17.78
2023-09-25T09:20:37.566Z,18.05
2023-09-25T09:23:07.419Z,18.21
2023-09-25T09:25:34.974Z,18.52
2023-09-25T09:28:04.897Z,18.67
2023-09-25T09:30:31.934Z,18.76
2023-09-25T09:32:58.842Z,18.87
2023-09-25T09:35:28.693Z,19.16
2023-09-25T09:37:57.657Z,19.34
2023-09-25T09:40:26.320Z,19.39
2023-09-25T09:42:54.358Z,19.60
2023-09-25T09:45:22.609Z,20.06
2023-09-25T09:47:52.177Z,20.29
2023-09-25T09:50:24.098Z,20.40
2023-09-25T09:52:51.696Z,20.57
2023-09-25T09:55:21.684Z,21.44
2023-09-25T09:57:52.030Z,21.46
2023-09-25T10:00:19.153Z,21.84
2023-09-25T10:02:47.961Z,22.27
2023-09-25T10:05:16.325Z,22.41
2023-09-25T10:08:11.210Z,22.56
2023-09-25T10:11:17.453Z,21.99
2023-09-25T10:13:44.294Z,22.23
2023-09-25T10:16:13.534Z,23.10
2023-09-25T10:18:42.675Z,23.69
2023-09-25T10:21:15.373Z,24.43
2023-09-25T10:23:48.178Z,24.63
2023-09-25T10:26:21.658Z,25.01
2023-09-25T10:29:13.281Z,24.63
2023-09-25T10:31:45.413Z,24.78
2023-09-25T10:34:12.324Z,25.94
2023-09-25T10:36:48.953Z,26.69
2023-09-25T10:39:18.036Z,26.04
2023-09-25T10:41:48.275Z,26.21
2023-09-25T10:44:16.344Z,26.73
2023-09-25T10:46:43.186Z,27.10
2023-09-25T10:49:10.144Z,28.03
2023-09-25T10:51:37.405Z,28.42
2023-09-25T10:54:04.559Z,28.83
2023-09-25T10:56:31.811Z,29.24
2023-09-25T10:58:58.842Z,29.50
2023-09-25T11:01:28.845Z,29.21
2023-09-25T11:03:58.601Z,29.77
2023-09-25T11:06:26.535Z,30.19
2023-09-25T11:09:07.164Z,30.28
2023-09-25T11:11:33.966Z,30.04
2023-09-25T11:14:00.845Z,30.06
2023-09-25T11:16:28.532Z,30.23
2023-09-25T11:19:12.057Z,30.42
2023-09-25T11:21:41.071Z,30.74
2023-09-25T11:24:09.732Z,30.55
2023-09-25T11:26:40.677Z,30.36
2023-09-25T11:29:12.006Z,29.37
2023-09-25T11:31:59.272Z,29.55
2023-09-25T11:34:27.161Z,30.06
2023-09-25T11:36:54.513Z,29.84
2023-09-25T11:39:21.279Z,30.01
2023-09-25T11:41:47.969Z,30.14
2023-09-25T11:44:15.501Z,30.80
2023-09-25T11:46:45.803Z,30.48
2023-09-25T11:49:13.602Z,31.06
2023-09-25T11:51:40.766Z,31.44
2023-09-25T11:54:07.571Z,31.45
2023-09-25T11:56:34.549Z,31.47
2023-09-25T11:59:04.234Z,31.68
2023-09-25T12:01:30.954Z,31.65
2023-09-25T12:03:58.619Z,31.20
2023-09-25T12:06:25.932Z,31.24
2023-09-25T12:08:53.013Z,31.37
2023-09-25T12:11:19.908Z,31.40
2023-09-25T12:13:46.555Z,31.87
2023-09-25T12:16:13.931Z,31.97
2023-09-25T12:18:40.877Z,32.35
2023-09-25T12:21:09.987Z,32.69
2023-09-25T12:23:36.923Z,32.83
2023-09-25T12:26:03.658Z,32.55
2023-09-25T12:28:30.550Z,32.23
2023-09-25T12:30:58.156Z,31.77
2023-09-25T12:33:25.100Z,31.64
2023-09-25T12:35:52.556Z,32.24
2023-09-25T12:38:19.276Z,31.94
2023-09-25T12:40:46.031Z,32.09
2023-09-25T12:43:12.797Z,32.11
2023-09-25T12:45:39.550Z,32.10
2023-09-25T12:48:07.418Z,30.26
2023-09-25T12:50:34.885Z,29.31
2023-09-25T12:53:01.873Z,27.79
2023-09-25T12:55:32.238Z,26.47
2023-09-25T12:57:59.548Z,25.69
2023-09-25T13:00:26.654Z,25.04
2023-09-25T13:02:54.021Z,25.04
2023-09-25T13:05:20.715Z,26.19
2023-09-25T13:07:47.465Z,27.32
2023-09-25T13:10:14.330Z,27.65
2023-09-25T13:12:41.100Z,27.86
2023-09-25T13:15:08.488Z,28.92
2023-09-25T13:17:36.725Z,29.19
2023-09-25T13:20:08.405Z,29.26
2023-09-25T13:22:38.672Z,29.88
2023-09-25T13:25:06.806Z,30.52
2023-09-25T13:27:33.773Z,30.44
2023-09-25T13:30:00.605Z,30.60
2023-09-25T13:32:27.355Z,30.85
2023-09-25T13:34:54.066Z,31.35
2023-09-25T13:37:20.728Z,31.94
2023-09-25T13:39:48.108Z,31.44
2023-09-25T13:42:14.830Z,30.38
2023-09-25T13:44:42.822Z,29.77
2023-09-25T13:47:11.242Z,30.40
2023-09-25T13:49:37.832Z,29.51
2023-09-25T13:52:04.559Z,28.77
2023-09-25T13:54:31.880Z,27.17
2023-09-25T13:56:59.374Z,26.67
2023-09-25T13:59:26.409Z,26.19
2023-09-25T14:01:53.200Z,25.79
2023-09-25T14:04:20.240Z,25.55
2023-09-25T14:06:46.917Z,25.43
2023-09-25T14:09:13.725Z,25.19
2023-09-25T14:11:40.788Z,24.93
2023-09-25T14:14:09.356Z,24.87
2023-09-25T14:16:36.634Z,24.66
2023-09-25T14:19:04.150Z,24.60
2023-09-25T14:21:31.012Z,24.43
2023-09-25T14:23:57.709Z,24.27
2023-09-25T14:26:24.308Z,23.87
2023-09-25T14:28:50.990Z,23.87
2023-09-25T14:31:19.309Z,23.85
2023-09-25T14:33:46.263Z,23.67
2023-09-25T14:36:13.178Z,23.53
2023-09-25T14:38:39.901Z,23.28
2023-09-25T14:41:09.196Z,23.16
2023-09-25T14:43:35.827Z,22.96
2023-09-25T14:46:02.614Z,22.88
2023-09-25T14:48:29.642Z,22.78
2023-09-25T14:50:57.564Z,22.65
2023-09-25T14:53:24.431Z,22.37
2023-09-25T14:55:57.008Z,22.27
2023-09-25T14:58:24.948Z,22.02
2023-09-25T15:00:59.095Z,21.85
2023-09-25T15:03:27.406Z,21.78
2023-09-25T15:05:54.449Z,21.55
2023-09-25T15:08:24.616Z,21.42
2023-09-25T15:10:52.437Z,21.33
2023-09-25T15:13:19.141Z,21.39
2023-09-25T15:15:45.849Z,21.51
2023-09-25T15:18:12.600Z,21.50
2023-09-25T15:20:39.399Z,21.44
2023-09-25T15:23:06.086Z,21.42
2023-09-25T15:25:32.688Z,21.37
2023-09-25T15:27:59.471Z,21.31
2023-09-25T15:30:26.310Z,21.28
2023-09-25T15:32:53.560Z,21.22
2023-09-25T15:35:21.446Z,21.36
2023-09-25T15:37:48.468Z,21.40
2023-09-25T15:40:15.542Z,21.50
2023-09-25T15:42:42.381Z,21.70
2023-09-25T15:45:09.440Z,21.91
2023-09-25T15:47:36.212Z,21.77
2023-09-25T15:50:03.301Z,21.58
2023-09-25T15:52:29.963Z,21.25
2023-09-25T15:54:58.825Z,20.99
2023-09-25T15:57:27.257Z,20.77
2023-09-25T15:59:54.018Z,20.55
2023-09-25T16:02:22.049Z,20.34
2023-09-25T16:04:49.091Z,20.19
2023-09-25T16:07:15.968Z,20.09
2023-09-25T16:09:42.779Z,19.97
2023-09-25T16:12:09.520Z,19.83
2023-09-25T16:14:36.223Z,19.73
2023-09-25T16:17:02.864Z,19.66
2023-09-25T16:19:29.512Z,19.53
2023-09-25T16:21:56.150Z,19.44
2023-09-25T16:24:22.853Z,19.40
2023-09-25T16:26:49.736Z,19.36
2023-09-25T16:29:16.380Z,19.23
2023-09-25T16:31:43.096Z,19.12
2023-09-25T16:34:09.789Z,19.06
2023-09-25T16:36:36.447Z,18.96
2023-09-25T16:39:04.736Z,18.76
2023-09-25T16:41:31.775Z,18.66
2023-09-25T16:43:58.379Z,18.56
2023-09-25T16:46:25.302Z,18.43
2023-09-25T16:48:52.092Z,18.28
2023-09-25T16:51:18.809Z,18.12
2023-09-25T16:53:45.669Z,17.91
2023-09-25T16:56:12.567Z,17.81
2023-09-25T16:58:39.922Z,17.68
2023-09-25T17:01:09.437Z,17.59
2023-09-25T17:03:36.297Z,17.50
2023-09-25T17:06:03.379Z,17.37
2023-09-25T17:08:30.342Z,17.23
2023-09-25T17:10:57.095Z,17.12
2023-09-25T17:13:25.499Z,17.01
2023-09-25T17:15:52.285Z,16.96
2023-09-25T17:18:19.915Z,16.83
2023-09-25T17:20:46.562Z,16.72
2023-09-25T17:23:13.228Z,16.64
2023-09-25T17:25:39.861Z,16.59
2023-09-25T17:28:07.235Z,16.50
2023-09-25T17:30:35.738Z,16.44
2023-09-25T17:33:03.636Z,16.36
2023-09-25T17:35:31.882Z,16.25
2023-09-25T17:38:00.614Z,16.18
2023-09-25T17:40:27.927Z,16.08
2023-09-25T17:42:54.589Z,16.11
2023-09-25T17:45:24.117Z,16.00
2023-09-25T17:47:51.067Z,15.91
2023-09-25T17:50:18.169Z,15.86
2023-09-25T17:52:48.660Z,15.76
2023-09-25T17:55:16.436Z,15.71
2023-09-25T17:57:44.391Z,15.69
2023-09-25T18:00:11.462Z,15.60
2023-09-25T18:02:38.423Z,15.57
2023-09-25T18:05:05.629Z,15.52
2023-09-25T18:07:32.420Z,15.50
2023-09-25T18:09:59.695Z,15.43
2023-09-25T18:12:26.517Z,15.33
2023-09-25T18:14:53.260Z,15.30
2023-09-25T18:17:19.985Z,15.26
2023-09-25T18:19:46.900Z,15.15
2023-09-25T18:22:13.522Z,15.09
2023-09-25T18:24:41.219Z,15.05
2023-09-25T18:27:08.368Z,15.05
2023-09-25T18:29:36.748Z,14.96
2023-09-25T18:32:04.806Z,14.95
2023-09-25T18:34:31.958Z,14.95
2023-09-25T18:36:59.010Z,14.91
2023-09-25T18:39:27.175Z,14.90
2023-09-25T18:41:55.430Z,14.84
2023-09-25T18:44:24.185Z,14.83
2023-09-25T18:46:51.799Z,14.77
2023-09-25T18:49:19.150Z,14.70
2023-09-25T18:51:46.182Z,14.58
2023-09-25T18:54:13.639Z,14.52
2023-09-25T18:56:40.754Z,14.50
2023-09-25T18:59:09.287Z,14.49
2023-09-25T19:01:36.560Z,14.42
2023-09-25T19:04:04.379Z,14.37
2023-09-25T19:06:31.202Z,14.33
2023-09-25T19:08:57.859Z,14.31
2023-09-25T19:11:27.143Z,14.26
2023-09-25T19:13:53.800Z,14.22
2023-09-25T19:16:21.386Z,14.15
2023-09-25T19:18:49.094Z,14.10
2023-09-25T19:21:15.732Z,14.03
2023-09-25T19:23:42.549Z,14.05
2023-09-25T19:26:09.249Z,14.03
2023-09-25T19:28:36.225Z,14.00
2023-09-25T19:31:02.992Z,13.93
2023-09-25T19:33:53.998Z,13.86
2023-09-25T19:36:19.616Z,13.86
2023-09-25T19:38:46.613Z,13.85
2023-09-25T19:41:13.645Z,13.82
2023-09-25T19:43:40.225Z,13.73
2023-09-25T19:46:08.502Z,13.72
2023-09-25T19:48:36.048Z,13.69
2023-09-25T19:51:03.142Z,13.67
2023-09-25T19:53:29.802Z,13.67
2023-09-25T19:55:56.469Z,13.65
2023-09-25T19:58:23.347Z,13.63
2023-09-25T20:00:50.105Z,13.63
2023-09-25T20:03:17.266Z,13.57
2023-09-25T20:05:44.499Z,13.55
2023-09-25T20:08:11.311Z,13.59
2023-09-25T20:10:38.192Z,13.55
2023-09-25T20:13:04.895Z,13.54
2023-09-25T20:15:31.549Z,13.43
2023-09-25T20:17:58.357Z,13.33
2023-09-25T20:20:25.439Z,13.37
2023-09-25T20:22:54.996Z,13.30
2023-09-25T20:25:22.181Z,13.28
2023-09-25T20:27:48.798Z,13.23
2023-09-25T20:30:15.584Z,13.19
2023-09-25T20:32:42.262Z,13.16
2023-09-25T20:35:09.465Z,13.20
2023-09-25T20:37:36.068Z,13.11
2023-09-25T20:40:03.010Z,13.03
2023-09-25T20:42:29.718Z,13.00
2023-09-25T20:44:56.411Z,12.98
2023-09-25T20:47:23.079Z,12.97
2023-09-25T20:49:49.749Z,12.93
2023-09-25T20:52:16.558Z,12.91
2023-09-25T20:54:43.217Z,12.87
2023-09-25T20:57:09.888Z,12.87
2023-09-25T20:59:36.538Z,12.82
2023-09-25T21:02:03.231Z,12.84
2023-09-25T21:04:30.017Z,12.83
2023-09-25T21:06:57.327Z,12.87
2023-09-25T21:09:24.011Z,12.88
2023-09-25T21:11:50.629Z,12.83
2023-09-25T21:14:17.360Z,12.79
2023-09-25T21:16:44.325Z,12.73
2023-09-25T21:19:11.128Z,12.70
2023-09-25T21:21:37.920Z,12.71
2023-09-25T21:24:05.012Z,12.67
2023-09-25T21:26:31.922Z,12.67
2023-09-25T21:28:58.623Z,12.67
2023-09-25T21:31:26.201Z,12.64
2023-09-25T21:33:53.827Z,12.60
2023-09-25T21:36:20.837Z,12.56
2023-09-25T21:38:49.182Z,12.56
2023-09-25T21:41:15.880Z,12.54
2023-09-25T21:43:43.010Z,12.53
2023-09-25T21:46:10.317Z,12.45
2023-09-25T21:48:39.525Z,12.49
2023-09-25T21:51:06.237Z,12.50
2023-09-25T21:53:32.954Z,12.40
2023-09-25T21:55:59.725Z,12.42
2023-09-25T21:58:26.444Z,12.44
2023-09-25T22:00:53.910Z,12.43
2023-09-25T22:03:20.836Z,12.39
2023-09-25T22:05:47.668Z,12.36
2023-09-25T22:08:14.406Z,12.33
2023-09-25T22:10:41.066Z,12.36
2023-09-25T22:13:08.011Z,12.46
2023-09-25T22:15:34.779Z,12.62
2023-09-25T22:18:01.688Z,12.72
2023-09-25T22:20:28.426Z,12.78
2023-09-25T22:22:55.406Z,12.74
2023-09-25T22:25:23.129Z,12.74
2023-09-25T22:27:53.161Z,12.82
2023-09-25T22:30:20.008Z,12.72
2023-09-25T22:32:49.351Z,12.59
2023-09-25T22:35:16.467Z,12.47
2023-09-25T22:38:06.329Z,12.36
2023-09-25T22:40:35.045Z,12.31
2023-09-25T22:43:02.627Z,12.23
2023-09-25T22:45:30.115Z,12.17
2023-09-25T22:47:58.838Z,12.13
2023-09-25T22:50:27.079Z,12.07
2023-09-25T22:52:54.038Z,12.01
2023-09-25T22:55:21.893Z,11.93
2023-09-25T22:57:49.070Z,11.95
2023-09-25T23:00:20.262Z,11.88
2023-09-25T23:02:48.052Z,11.81
2023-09-25T23:05:15.657Z,11.82
2023-09-25T23:07:49.356Z,11.82
2023-09-25T23:10:17.195Z,11.76
2023-09-25T23:12:45.779Z,11.79
2023-09-25T23:15:14.838Z,11.77
2023-09-25T23:17:42.890Z,11.73
2023-09-25T23:20:31.032Z,11.76
2023-09-25T23:22:57.828Z,11.68
2023-09-25T23:25:27.467Z,11.65
2023-09-25T23:27:54.944Z,11.64
2023-09-25T23:30:22.906Z,11.62
2023-09-25T23:32:50.892Z,11.61
2023-09-25T23:35:18.261Z,11.52
2023-09-25T23:37:47.787Z,11.50
2023-09-25T23:40:17.522Z,11.52
2023-09-25T23:42:44.849Z,11.51
2023-09-25T23:45:15.587Z,11.47
2023-09-25T23:47:42.675Z,11.43
2023-09-25T23:50:11.479Z,11.44
2023-09-25T23:52:40.172Z,11.39
2023-09-25T23:55:08.370Z,11.35
2023-09-25T23:57:39.651Z,11.40
